Eldora, IA (50627)

10:36 AM CDT on October 02, 2014 (GMT -0500)
Meyer Agri-Air | Change Station
CLOSE
Current Station
Personal Weather Station
Location: Wellsburg, IA
Elevation: 333 m
Nearby Weather Stations

Elev 333 m 42.40 °N, 92.91 °W | Updated 6 minutes ago

Overcast
Overcast
17.2 °C
Feels Like 17.2 °C
N
6.4
Wind Variable Wind from ESE
Gusts 12.9 km/h

Today
High -- | Low -- °C
--% Chance of Precip.
Yesterday
High -- | Low -- °C
Precip. -- mm
7:10 AM 6:52 PM
First Quarter, 59% visible
Pressure 1009 hPa
Visibility 1.2 kilometers
Clouds Overcast 60 m
Dew Point 17 °C
Humidity 99%
Rainfall 0 mm
Snow Depth Not available.
UV 1 out of 12
Pollen .50 out of 12
Air Quality Not available.
Flu Activity Not available.
METAR KIFA 021515Z AUTO 08003KT 3/4SM DZ OVC002 17/17 A2980 RMK AO2 T01710167

More Conditions Fewer Conditions

Pressure 1009 hPa
Visibility 1.2 kilometers
Clouds Overcast 60 m
Dew Point 17 °C
Humidity 99%
Rainfall 0 mm
Snow Depth Not available.
UV 1 out of 12
Pollen .50 out of 12
Air Quality Not available.
Flu Activity Not available.
METAR KIFA 021515Z AUTO 08003KT 3/4SM DZ OVC002 17/17 A2980 RMK AO2 T01710167

More Conditions Fewer Conditions

10-Day Weather Forecast

Almanac

Astronomy

Oct. 02, 2014 Rise Set
Actual Time 7:10 AM CDT 6:52 PM CDT
Civil Twilight 6:42 AM CDT 7:20 PM CDT
Nautical Twilight 6:10 AM CDT 7:52 PM CDT
Astronomical Twilight 5:37 AM CDT 8:25 PM CDT
Moon 3:05 PM CDT 12:21 AM CDT
Length of Visible Light 12h 37m
Length of Day
11h 41m
Tomorrow will be 2m 50s shorter.
First Quarter, 59% of the Moon is Illuminated
Today
First Quarter
Oct 8
Full
Oct 15
Last Quarter
Oct 23
New
Oct 30
First Quarter

Today's Extremes

State Highs State Lows

Community

WunderPhotos

Upload Photos

1,758,276 photos uploaded!

WunderBlogs® & News

Nearby

Snow Depth

Station Depth Elevation
No new snow has been reported.

Earthquake Activity

City Distance Mag. Time & Date
No recent earthquake activity has been reported nearby.
Minimum magnitude displayed is 2.5.

Coastal Water Temperatures

Place Temperature
No Stations Reporting

Nearby Weather Stations